Terminal Aerodrome Forecast
Issued by NWS Corpus Christi, TX

Home | Current Version | Previous Version | Text Only | Print | Product List | Glossary On
Versions: 1 2 3 4 5 6 7 8 9 10 11 12 13 14 15 16
716
FTUS44 KCRP 201130
TAFVCT
TAF
KVCT 201130Z 2012/2112 15006KT P6SM FEW015
      TEMPO 2012/2014 4SM BR
     FM201400 17010KT P6SM VCSH SCT025
     FM201800 17012G18KT P6SM SCT035
     FM210000 14008KT P6SM SCT035
     FM210700 12004KT P6SM FEW015=

USA.gov is the U.S. government's official web portal to all federal, state and local government web resources and services.